Time;durP1;ratioP1;P1;durP2;ratioP2;P2;SDS_P1;SDS_P2;PMS_P1;PMS_P2;Temp;Humidity;BMP_temperature;BMP_pressure;BME280_temperature;BME280_humidity;BME280_pressure;Samples;Min_cycle;Max_cycle;Signal;HPM_P1;HPM_P2
2022/02/01 00:00:44;;;;;;;6.20;2.90;;;;;;;;;;4992326;28;20323;-78
2022/02/01 00:03:13;;;;;;;13.10;6.63;;;;;;;;;;4992866;28;20184;-79
2022/02/01 00:05:48;;;;;;;8.87;4.07;;;;;;;;;;4992875;28;20196;-79
2022/02/01 00:08:25;;;;;;;9.47;5.43;;;;;;;;;;4993091;28;20217;-78
2022/02/01 00:11:01;;;;;;;8.57;5.53;;;;;;;;;;4993024;28;20275;-78
2022/02/01 00:13:38;;;;;;;8.87;6.07;;;;;;;;;;4992769;28;20653;-78
2022/02/01 00:35:54;;;;;;;12.73;5.87;;;;;;;;;;4980094;28;20295;-77
2022/02/01 00:38:26;;;;;;;9.93;5.50;;;;;;;;;;4992554;28;20197;-78
2022/02/01 00:40:56;;;;;;;9.07;4.80;;;;;;;;;;4992550;28;20189;-78
2022/02/01 00:43:24;;;;;;;10.13;5.07;;;;;;;;;;4992388;28;20251;-78
2022/02/01 00:45:51;;;;;;;8.70;4.93;;;;;;;;;;4992426;28;20679;-77
2022/02/01 00:48:19;;;;;;;8.63;5.20;;;;;;;;;;4992326;28;20210;-77
2022/02/01 00:50:46;;;;;;;7.40;3.93;;;;;;;;;;4992407;28;20201;-77
2022/02/01 00:53:13;;;;;;;8.60;5.47;;;;;;;;;;4992341;28;20303;-77
2022/02/01 00:55:42;;;;;;;7.43;3.90;;;;;;;;;;4992289;28;20200;-77
2022/02/01 00:58:10;;;;;;;7.57;3.70;;;;;;;;;;4992069;28;20243;-78
2022/02/01 01:00:38;;;;;;;6.83;3.97;;;;;;;;;;4992344;28;20291;-77
2022/02/01 01:03:05;;;;;;;7.50;5.27;;;;;;;;;;4992524;28;20200;-77
2022/02/01 01:05:32;;;;;;;6.40;4.30;;;;;;;;;;4992215;28;20212;-77
2022/02/01 01:07:59;;;;;;;12.90;3.30;;;;;;;;;;4992216;28;20196;-77
2022/02/01 01:10:26;;;;;;;8.00;4.17;;;;;;;;;;4992101;28;20223;-77
2022/02/01 01:13:04;;;;;;;11.17;6.27;;;;;;;;;;4992228;28;20200;-77
2022/02/01 01:15:34;;;;;;;11.50;6.13;;;;;;;;;;4992168;28;20235;-78
2022/02/01 01:45:52;;;;;;;101.60;42.17;;;;;;;;;;4995662;28;20215;-77
2022/02/01 01:54:14;;;;;;;10.97;6.20;;;;;;;;;;4953578;28;20249;-77
2022/02/01 01:56:42;;;;;;;11.47;6.33;;;;;;;;;;4980551;28;20200;-77
2022/02/01 01:59:11;;;;;;;15.93;9.30;;;;;;;;;;4995379;28;20584;-77
2022/02/01 02:01:41;;;;;;;8.83;6.17;;;;;;;;;;4995147;28;20204;-77
2022/02/01 02:04:09;;;;;;;13.20;8.73;;;;;;;;;;4995570;28;20200;-77
2022/02/01 02:06:37;;;;;;;23.73;12.53;;;;;;;;;;4995065;28;20203;-77
2022/02/01 02:09:07;;;;;;;15.13;9.33;;;;;;;;;;4995262;28;20228;-77
2022/02/01 02:11:42;;;;;;;11.03;6.30;;;;;;;;;;4995000;28;20689;-77
2022/02/01 02:14:19;;;;;;;9.70;5.83;;;;;;;;;;4994987;28;20207;-77
2022/02/01 02:16:50;;;;;;;6.77;4.90;;;;;;;;;;4994924;28;20188;-77
2022/02/01 02:19:17;;;;;;;12.80;8.80;;;;;;;;;;4994434;28;20184;-77
2022/02/01 02:21:51;;;;;;;10.00;5.70;;;;;;;;;;4994801;28;20589;-77
2022/02/01 02:24:18;;;;;;;13.77;6.30;;;;;;;;;;4994726;28;20732;-77
2022/02/01 02:26:46;;;;;;;9.30;5.37;;;;;;;;;;4994765;28;20200;-77
2022/02/01 02:29:13;;;;;;;9.17;5.50;;;;;;;;;;4994566;28;20220;-77
2022/02/01 02:31:41;;;;;;;12.03;5.60;;;;;;;;;;4994929;28;20223;-78
2022/02/01 02:34:12;;;;;;;7.47;4.63;;;;;;;;;;4994201;28;20283;-77
2022/02/01 02:36:44;;;;;;;9.00;5.27;;;;;;;;;;4993634;28;20814;-77
2022/02/01 02:39:23;;;;;;;38.97;19.13;;;;;;;;;;4994550;28;20199;-77
2022/02/01 02:41:54;;;;;;;46.33;24.33;;;;;;;;;;4992494;28;20188;-77
2022/02/01 02:47:09;;;;;;;79.77;42.37;;;;;;;;;;4994483;28;20188;-77
2022/02/01 02:49:36;;;;;;;30.83;18.90;;;;;;;;;;4994060;28;20220;-77
2022/02/01 02:52:04;;;;;;;23.90;13.80;;;;;;;;;;4994168;28;20276;-77
2022/02/01 02:54:32;;;;;;;14.00;9.13;;;;;;;;;;4993939;28;20199;-77
2022/02/01 02:57:01;;;;;;;12.03;8.40;;;;;;;;;;4993932;28;20735;-77
2022/02/01 02:59:30;;;;;;;14.00;7.87;;;;;;;;;;4993975;28;20215;-77
2022/02/01 03:01:57;;;;;;;18.23;9.50;;;;;;;;;;4993761;28;20207;-77
2022/02/01 03:04:26;;;;;;;14.50;8.20;;;;;;;;;;4994193;28;20219;-77
2022/02/01 03:06:54;;;;;;;10.90;6.13;;;;;;;;;;4994020;28;20601;-77
2022/02/01 03:09:22;;;;;;;9.10;6.07;;;;;;;;;;4994065;28;20235;-77
2022/02/01 03:11:53;;;;;;;12.40;6.13;;;;;;;;;;4994003;28;20235;-77
2022/02/01 03:14:25;;;;;;;9.23;5.37;;;;;;;;;;4994067;28;20192;-77
2022/02/01 03:17:13;;;;;;;4.73;4.20;;;;;;;;;;4993628;28;20200;-77
2022/02/01 03:19:56;;;;;;;9.87;4.80;;;;;;;;;;4993618;28;20192;-77
2022/02/01 03:22:24;;;;;;;11.33;6.10;;;;;;;;;;4993510;28;20196;-77
2022/02/01 03:24:52;;;;;;;13.20;6.17;;;;;;;;;;4993504;28;20295;-77
2022/02/01 03:27:21;;;;;;;9.20;6.20;;;;;;;;;;4993441;28;20207;-78
2022/02/01 03:29:49;;;;;;;10.37;6.30;;;;;;;;;;4993304;28;20843;-77
2022/02/01 03:32:17;;;;;;;291.20;130.20;;;;;;;;;;4993292;28;20192;-77
2022/02/01 03:34:44;;;;;;;24.20;15.10;;;;;;;;;;4993329;28;20196;-77
2022/02/01 03:37:11;;;;;;;14.70;10.30;;;;;;;;;;4993091;28;20231;-78
2022/02/01 03:39:39;;;;;;;18.13;9.23;;;;;;;;;;4993172;28;20200;-77
2022/02/01 03:42:07;;;;;;;65.87;34.37;;;;;;;;;;4993041;28;20196;-78
2022/02/01 03:44:35;;;;;;;57.83;31.97;;;;;;;;;;4993092;28;20207;-77
2022/02/01 03:47:03;;;;;;;24.47;15.33;;;;;;;;;;4992692;28;20677;-78
2022/02/01 03:49:31;;;;;;;14.87;9.57;;;;;;;;;;4993345;28;20651;-78
2022/02/01 03:51:59;;;;;;;18.33;11.53;;;;;;;;;;4993164;28;20223;-78
2022/02/01 03:54:28;;;;;;;17.63;9.33;;;;;;;;;;4993210;28;20676;-78
2022/02/01 03:56:55;;;;;;;13.40;8.43;;;;;;;;;;4993249;28;20200;-78
2022/02/01 03:59:23;;;;;;;11.30;5.53;;;;;;;;;;4992796;28;20203;-78
2022/02/01 04:01:55;;;;;;;14.57;8.83;;;;;;;;;;4992838;28;20200;-78
2022/02/01 04:04:23;;;;;;;21.67;11.67;;;;;;;;;;4992715;28;20188;-78
2022/02/01 04:06:51;;;;;;;21.80;11.47;;;;;;;;;;4993159;28;20200;-77
2022/02/01 04:09:18;;;;;;;22.03;12.80;;;;;;;;;;4992611;28;20716;-78
2022/02/01 04:11:45;;;;;;;23.70;14.13;;;;;;;;;;4993150;28;20677;-78
2022/02/01 04:14:16;;;;;;;32.03;17.47;;;;;;;;;;4993075;28;20282;-78
2022/02/01 04:16:43;;;;;;;25.73;15.67;;;;;;;;;;4992840;28;20188;-78
2022/02/01 04:19:12;;;;;;;27.43;16.40;;;;;;;;;;4992528;28;20200;-77
2022/02/01 04:21:43;;;;;;;9.80;7.50;;;;;;;;;;4991514;28;20227;-78
2022/02/01 04:24:11;;;;;;;11.37;5.87;;;;;;;;;;4991523;28;20185;-78
2022/02/01 04:26:38;;;;;;;10.20;5.23;;;;;;;;;;4991576;28;20635;-78
2022/02/01 04:29:05;;;;;;;6.07;3.90;;;;;;;;;;4991416;28;20204;-77
2022/02/01 04:31:32;;;;;;;5.83;3.70;;;;;;;;;;4991479;28;20202;-78
2022/02/01 04:33:59;;;;;;;11.03;7.20;;;;;;;;;;4991045;28;20204;-78
2022/02/01 04:36:28;;;;;;;9.97;6.37;;;;;;;;;;4991248;28;20246;-78
2022/02/01 04:38:57;;;;;;;10.40;6.53;;;;;;;;;;4991812;28;20188;-78
2022/02/01 04:41:25;;;;;;;8.63;6.13;;;;;;;;;;4988808;28;20200;-78
2022/02/01 04:43:53;;;;;;;6.87;5.63;;;;;;;;;;4991316;28;20379;-78
2022/02/01 04:46:20;;;;;;;6.33;4.87;;;;;;;;;;4991112;28;20260;-78
2022/02/01 04:48:48;;;;;;;9.03;5.37;;;;;;;;;;4991279;28;20227;-78
2022/02/01 04:51:16;;;;;;;7.90;4.80;;;;;;;;;;4991120;28;20255;-78
2022/02/01 04:53:45;;;;;;;12.60;9.10;;;;;;;;;;4990748;28;20291;-78
2022/02/01 04:56:12;;;;;;;20.13;12.53;;;;;;;;;;4991064;28;20590;-79
2022/02/01 04:58:39;;;;;;;17.90;13.93;;;;;;;;;;4992547;28;20202;-79
2022/02/01 05:01:07;;;;;;;17.57;9.40;;;;;;;;;;4995053;28;20192;-79
2022/02/01 05:03:34;;;;;;;21.07;10.07;;;;;;;;;;4995260;28;20192;-78
2022/02/01 05:06:01;;;;;;;83.97;42.40;;;;;;;;;;4995141;28;20306;-78
2022/02/01 05:08:28;;;;;;;52.13;31.27;;;;;;;;;;4994722;28;20588;-78
2022/02/01 05:10:57;;;;;;;12.17;9.33;;;;;;;;;;4995101;28;20224;-76
2022/02/01 05:14:02;;;;;;;10.20;7.43;;;;;;;;;;4995182;28;20207;-76
2022/02/01 05:16:43;;;;;;;9.53;6.17;;;;;;;;;;4995283;28;20203;-77
2022/02/01 05:19:13;;;;;;;10.87;6.97;;;;;;;;;;4994691;28;20199;-77
2022/02/01 05:21:42;;;;;;;11.23;7.20;;;;;;;;;;4994708;28;20184;-77
2022/02/01 05:24:12;;;;;;;9.63;6.27;;;;;;;;;;4994674;28;20258;-77
2022/02/01 05:26:42;;;;;;;11.77;6.40;;;;;;;;;;4994755;28;20716;-77
2022/02/01 05:29:09;;;;;;;14.43;9.77;;;;;;;;;;4994688;28;20216;-77
2022/02/01 05:31:37;;;;;;;16.37;10.73;;;;;;;;;;4994584;28;20231;-77
2022/02/01 05:34:04;;;;;;;11.73;8.53;;;;;;;;;;4994063;28;20207;-78
2022/02/01 05:36:31;;;;;;;19.57;10.23;;;;;;;;;;4994554;28;20236;-78
2022/02/01 05:38:58;;;;;;;15.67;9.20;;;;;;;;;;4994502;28;20210;-78
2022/02/01 05:41:27;;;;;;;10.33;7.33;;;;;;;;;;4994985;28;20243;-78
2022/02/01 05:43:55;;;;;;;10.93;6.60;;;;;;;;;;4995194;28;20196;-77
2022/02/01 05:46:23;;;;;;;5.20;4.70;;;;;;;;;;4995244;28;20204;-78
2022/02/01 05:48:50;;;;;;;5.63;4.90;;;;;;;;;;4995282;28;20290;-77
2022/02/01 05:51:17;;;;;;;9.20;4.77;;;;;;;;;;4995339;28;20220;-77
2022/02/01 05:53:44;;;;;;;23.67;10.13;;;;;;;;;;4995284;28;20204;-78
2022/02/01 05:56:12;;;;;;;89.83;39.73;;;;;;;;;;4988981;28;20215;-78
2022/02/01 05:58:39;;;;;;;119.10;54.90;;;;;;;;;;4993352;28;20208;-77
2022/02/01 06:01:08;;;;;;;69.70;37.23;;;;;;;;;;4995469;28;20581;-77
2022/02/01 06:03:35;;;;;;;135.27;74.13;;;;;;;;;;4995141;28;20211;-77
2022/02/01 06:06:02;;;;;;;69.23;45.60;;;;;;;;;;4995020;28;20200;-77
2022/02/01 06:08:30;;;;;;;47.10;31.60;;;;;;;;;;4995041;28;20200;-77
2022/02/01 06:10:57;;;;;;;32.30;18.47;;;;;;;;;;4994604;28;20235;-77
2022/02/01 06:13:24;;;;;;;21.17;12.63;;;;;;;;;;4995233;28;20196;-77
2022/02/01 06:15:51;;;;;;;12.33;9.13;;;;;;;;;;4994926;28;20204;-77
2022/02/01 06:18:20;;;;;;;21.13;13.63;;;;;;;;;;4994919;28;20212;-77
2022/02/01 06:20:47;;;;;;;84.30;41.63;;;;;;;;;;4995150;28;20204;-77
2022/02/01 06:23:15;;;;;;;232.17;113.33;;;;;;;;;;4994768;28;20288;-78
2022/02/01 06:25:49;;;;;;;91.03;51.33;;;;;;;;;;4994689;28;20689;-78
2022/02/01 06:28:17;;;;;;;26.30;19.40;;;;;;;;;;4995007;28;20185;-78
2022/02/01 06:30:44;;;;;;;16.90;12.97;;;;;;;;;;4994594;28;20231;-77
2022/02/01 06:33:12;;;;;;;25.47;14.43;;;;;;;;;;4994536;28;20200;-77
2022/02/01 06:35:41;;;;;;;31.80;19.00;;;;;;;;;;4994556;28;20200;-77
2022/02/01 06:38:09;;;;;;;175.87;89.07;;;;;;;;;;4994498;28;20727;-78
2022/02/01 06:40:37;;;;;;;187.77;94.20;;;;;;;;;;4994418;28;20200;-78
2022/02/01 06:43:04;;;;;;;140.47;71.07;;;;;;;;;;4994467;28;20207;-78
2022/02/01 06:45:33;;;;;;;52.57;35.97;;;;;;;;;;4994460;28;20203;-78
2022/02/01 06:48:01;;;;;;;54.97;38.13;;;;;;;;;;4994346;28;20608;-78
2022/02/01 06:50:28;;;;;;;79.67;53.77;;;;;;;;;;4994225;28;20231;-78
2022/02/01 06:52:57;;;;;;;59.83;36.53;;;;;;;;;;4994234;28;20211;-78
2022/02/01 06:55:34;;;;;;;24.37;18.03;;;;;;;;;;4994149;28;20287;-78
2022/02/01 06:58:02;;;;;;;35.90;23.37;;;;;;;;;;4994219;28;20657;-77
2022/02/01 07:00:30;;;;;;;21.50;15.07;;;;;;;;;;4994393;28;20199;-77
2022/02/01 07:02:57;;;;;;;29.13;17.23;;;;;;;;;;4994035;28;20207;-77
2022/02/01 07:05:24;;;;;;;32.30;21.33;;;;;;;;;;4993961;28;20200;-77
2022/02/01 07:07:52;;;;;;;41.00;28.77;;;;;;;;;;4993904;28;20200;-78
2022/02/01 07:10:20;;;;;;;25.83;18.87;;;;;;;;;;4994139;28;20705;-78
2022/02/01 07:12:48;;;;;;;19.77;14.37;;;;;;;;;;4993860;28;20202;-78
2022/02/01 07:15:15;;;;;;;24.20;16.73;;;;;;;;;;4994116;28;20200;-78
2022/02/01 07:17:47;;;;;;;32.50;21.60;;;;;;;;;;4994096;28;20223;-78
2022/02/01 07:20:14;;;;;;;20.83;13.30;;;;;;;;;;4993953;28;20602;-78
2022/02/01 07:22:43;;;;;;;15.83;11.97;;;;;;;;;;4993049;28;20211;-78
2022/02/01 07:25:17;;;;;;;18.70;10.17;;;;;;;;;;4993584;28;20208;-78
2022/02/01 07:27:48;;;;;;;15.80;8.90;;;;;;;;;;4993576;28;20692;-78
2022/02/01 07:30:19;;;;;;;10.63;6.63;;;;;;;;;;4993473;28;20620;-79
2022/02/01 07:32:46;;;;;;;15.40;9.33;;;;;;;;;;4993529;28;20188;-78
2022/02/01 07:35:14;;;;;;;17.03;11.00;;;;;;;;;;4993394;28;20204;-78
2022/02/01 07:37:42;;;;;;;15.10;8.67;;;;;;;;;;4993240;28;20238;-78
2022/02/01 07:40:10;;;;;;;13.93;9.73;;;;;;;;;;4992345;28;20200;-78
2022/02/01 07:42:37;;;;;;;19.17;9.70;;;;;;;;;;4991676;28;20199;-78
2022/02/01 07:45:08;;;;;;;18.27;12.83;;;;;;;;;;4993393;28;20204;-78
2022/02/01 07:47:35;;;;;;;16.80;12.83;;;;;;;;;;4993793;28;20196;-79
2022/02/01 07:50:02;;;;;;;16.87;13.07;;;;;;;;;;4993182;28;20200;-78
2022/02/01 07:52:29;;;;;;;16.67;11.77;;;;;;;;;;4993084;28;20201;-78
2022/02/01 07:54:56;;;;;;;16.67;10.57;;;;;;;;;;4993470;28;20207;-78
2022/02/01 07:57:24;;;;;;;13.33;10.23;;;;;;;;;;4993044;28;20208;-78
2022/02/01 07:59:51;;;;;;;10.27;6.10;;;;;;;;;;4992971;28;20373;-78
2022/02/01 08:02:20;;;;;;;9.03;6.13;;;;;;;;;;4992945;28;20193;-79
2022/02/01 08:04:49;;;;;;;11.70;7.53;;;;;;;;;;4992898;28;20204;-78
2022/02/01 08:07:16;;;;;;;10.17;8.30;;;;;;;;;;4993152;28;20208;-79
2022/02/01 08:09:48;;;;;;;15.80;10.33;;;;;;;;;;4993084;28;20231;-78
2022/02/01 08:12:32;;;;;;;14.93;8.87;;;;;;;;;;4992773;28;20305;-79
2022/02/01 08:17:59;;;;;;;16.37;10.13;;;;;;;;;;4993104;28;20568;-78
2022/02/01 08:20:30;;;;;;;16.87;10.17;;;;;;;;;;4992822;28;20624;-79
2022/02/01 08:23:03;;;;;;;23.80;12.77;;;;;;;;;;4992727;28;20192;-78
2022/02/01 08:25:32;;;;;;;26.60;14.23;;;;;;;;;;4993136;28;20580;-78
2022/02/01 08:28:02;;;;;;;30.60;18.30;;;;;;;;;;4992966;28;20196;-79
2022/02/01 08:30:30;;;;;;;23.40;12.43;;;;;;;;;;4992883;28;20207;-79
2022/02/01 08:32:59;;;;;;;21.93;11.87;;;;;;;;;;4992790;28;20227;-78
2022/02/01 08:35:26;;;;;;;16.97;10.33;;;;;;;;;;4992572;28;20681;-79
2022/02/01 08:37:54;;;;;;;16.60;8.50;;;;;;;;;;4992432;28;20239;-78
2022/02/01 08:40:22;;;;;;;20.43;8.30;;;;;;;;;;4992431;28;20296;-79
2022/02/01 08:42:51;;;;;;;16.93;8.17;;;;;;;;;;4992784;28;20231;-79
2022/02/01 08:45:22;;;;;;;16.53;8.97;;;;;;;;;;4992470;28;20200;-80
2022/02/01 08:47:50;;;;;;;18.33;9.73;;;;;;;;;;4992470;28;20275;-79
2022/02/01 08:50:22;;;;;;;13.47;8.27;;;;;;;;;;4992827;28;20200;-79
2022/02/01 08:52:50;;;;;;;14.00;8.63;;;;;;;;;;4992481;28;20191;-79
2022/02/01 08:55:33;;;;;;;20.37;8.17;;;;;;;;;;4992341;28;20220;-80
2022/02/01 08:58:01;;;;;;;9.47;6.33;;;;;;;;;;4992395;28;20189;-80
2022/02/01 09:00:28;;;;;;;13.23;6.00;;;;;;;;;;4992414;28;20206;-80
2022/02/01 09:02:57;;;;;;;11.37;7.00;;;;;;;;;;4992308;28;20208;-80
2022/02/01 09:05:26;;;;;;;14.90;7.50;;;;;;;;;;4992320;28;20197;-80
2022/02/01 09:07:53;;;;;;;15.73;10.83;;;;;;;;;;4992316;28;20204;-80
2022/02/01 09:10:22;;;;;;;18.27;11.63;;;;;;;;;;4992302;28;20200;-80
2022/02/01 09:12:49;;;;;;;16.13;10.10;;;;;;;;;;4992143;28;20236;-81
2022/02/01 09:15:16;;;;;;;12.77;8.40;;;;;;;;;;4992503;28;20584;-81
2022/02/01 09:17:44;;;;;;;11.17;7.97;;;;;;;;;;4992192;28;20196;-81
2022/02/01 09:20:12;;;;;;;14.00;8.63;;;;;;;;;;4992158;28;20218;-81
2022/02/01 09:22:41;;;;;;;10.23;7.93;;;;;;;;;;4992130;28;20197;-81
2022/02/01 09:25:10;;;;;;;12.87;9.23;;;;;;;;;;4992102;28;20204;-81
2022/02/01 09:27:37;;;;;;;14.23;9.37;;;;;;;;;;4992268;28;20200;-82
2022/02/01 09:30:05;;;;;;;13.63;8.50;;;;;;;;;;4992100;28;20207;-82
2022/02/01 09:32:32;;;;;;;13.30;8.37;;;;;;;;;;4991949;28;20228;-82
2022/02/01 09:35:00;;;;;;;23.90;8.30;;;;;;;;;;4992059;28;20204;-82
2022/02/01 09:37:27;;;;;;;14.77;8.80;;;;;;;;;;4992106;28;20654;-83
2022/02/01 09:39:56;;;;;;;10.03;8.63;;;;;;;;;;4992267;28;20219;-83
2022/02/01 09:42:27;;;;;;;12.97;8.60;;;;;;;;;;4992253;28;20287;-83
2022/02/01 09:44:54;;;;;;;22.47;13.57;;;;;;;;;;4993916;28;20200;-83
2022/02/01 09:47:32;;;;;;;12.90;7.87;;;;;;;;;;4995798;28;20595;-84
2022/02/01 09:49:59;;;;;;;11.80;7.47;;;;;;;;;;4995914;28;20211;-85
2022/02/01 09:52:26;;;;;;;13.93;6.93;;;;;;;;;;4995489;28;20224;-85
2022/02/01 09:54:55;;;;;;;11.33;8.83;;;;;;;;;;4995488;28;20200;-85
2022/02/01 09:57:23;;;;;;;21.50;13.13;;;;;;;;;;4995457;28;20208;-86
2022/02/01 09:59:54;;;;;;;19.50;10.90;;;;;;;;;;4995446;28;20210;-86
2022/02/01 10:02:22;;;;;;;33.87;26.20;;;;;;;;;;4995730;28;20668;-87
2022/02/01 10:04:51;;;;;;;25.17;20.00;;;;;;;;;;4995768;28;20197;-87
2022/02/01 10:07:19;;;;;;;37.57;33.67;;;;;;;;;;4996019;28;20200;-87
2022/02/01 10:09:51;;;;;;;22.43;20.30;;;;;;;;;;4996166;28;20202;-88
2022/02/01 10:12:21;;;;;;;18.93;15.07;;;;;;;;;;4995744;28;20228;-88
2022/02/01 10:14:58;;;;;;;18.93;16.17;;;;;;;;;;4995752;28;20204;-88
2022/02/01 10:17:30;;;;;;;11.63;8.43;;;;;;;;;;4996207;28;20223;-89
2022/02/01 10:19:57;;;;;;;14.53;8.60;;;;;;;;;;4995913;28;20203;-88
2022/02/01 10:22:36;;;;;;;18.10;13.73;;;;;;;;;;4995977;28;20211;-90
2022/02/01 10:25:05;;;;;;;31.40;22.30;;;;;;;;;;4995867;28;20196;-91
2022/02/01 10:27:38;;;;;;;28.80;18.90;;;;;;;;;;4995806;28;20220;-91
2022/02/01 10:30:14;;;;;;;61.30;41.97;;;;;;;;;;4995396;28;20581;-91
2022/02/01 10:35:36;;;;;;;26.67;19.17;;;;;;;;;;4993541;28;20278;-90
2022/02/01 10:38:06;;;;;;;154.20;92.60;;;;;;;;;;4995397;28;20239;-89
2022/02/01 10:40:38;;;;;;;32.90;24.53;;;;;;;;;;4996728;28;20297;-90
2022/02/01 10:43:17;;;;;;;28.50;17.80;;;;;;;;;;4995714;28;20255;-90
2022/02/01 10:45:45;;;;;;;21.43;15.43;;;;;;;;;;4995983;28;20624;-89
2022/02/01 10:48:15;;;;;;;12.83;11.43;;;;;;;;;;4996086;28;20254;-90
2022/02/01 10:50:42;;;;;;;75.97;41.83;;;;;;;;;;4995443;28;20279;-89
2022/02/01 10:53:20;;;;;;;17.93;14.57;;;;;;;;;;4995109;28;20314;-89
2022/02/01 10:55:48;;;;;;;50.03;30.03;;;;;;;;;;4994338;28;20211;-89
2022/02/01 10:58:17;;;;;;;40.70;27.07;;;;;;;;;;4995140;28;20208;-90
2022/02/01 11:00:45;;;;;;;32.23;21.77;;;;;;;;;;4994967;28;20192;-89
2022/02/01 11:03:13;;;;;;;50.87;32.20;;;;;;;;;;4995302;28;20560;-89
2022/02/01 11:05:42;;;;;;;55.37;31.80;;;;;;;;;;4995295;28;20711;-90
2022/02/01 11:08:15;;;;;;;12.87;10.70;;;;;;;;;;4994863;28;20274;-90
2022/02/01 11:10:45;;;;;;;8.93;7.43;;;;;;;;;;4995276;28;20653;-90
2022/02/01 11:13:13;;;;;;;7.43;6.50;;;;;;;;;;4995249;28;20209;-90
2022/02/01 11:15:56;;;;;;;12.70;10.80;;;;;;;;;;4995136;28;20578;-90
2022/02/01 11:18:26;;;;;;;9.37;8.07;;;;;;;;;;4995100;28;20549;-91
2022/02/01 11:20:54;;;;;;;36.67;28.50;;;;;;;;;;4994730;28;20644;-90
2022/02/01 11:23:22;;;;;;;27.40;18.30;;;;;;;;;;4994989;28;20203;-90
2022/02/01 11:25:54;;;;;;;47.53;31.80;;;;;;;;;;4994548;28;20196;-90
2022/02/01 11:28:37;;;;;;;31.57;23.27;;;;;;;;;;4994565;28;20184;-91
2022/02/01 11:31:06;;;;;;;54.47;28.33;;;;;;;;;;4994535;28;20191;-90
2022/02/01 11:33:39;;;;;;;26.07;16.77;;;;;;;;;;4994348;28;20235;-91
2022/02/01 11:36:08;;;;;;;13.23;9.90;;;;;;;;;;4994068;28;20204;-91
2022/02/01 11:38:35;;;;;;;11.93;8.70;;;;;;;;;;4994650;28;20185;-91
2022/02/01 11:41:04;;;;;;;7.17;5.80;;;;;;;;;;4994755;28;20207;-90
2022/02/01 11:43:32;;;;;;;7.90;5.50;;;;;;;;;;4994872;28;20192;-91
2022/02/01 11:46:01;;;;;;;10.43;6.93;;;;;;;;;;4994379;28;20200;-91
2022/02/01 11:48:33;;;;;;;10.50;9.50;;;;;;;;;;4994481;28;20665;-91
2022/02/01 11:51:02;;;;;;;8.43;7.67;;;;;;;;;;4994221;28;20188;-91
2022/02/01 11:53:30;;;;;;;9.17;7.73;;;;;;;;;;4994296;28;20228;-91
2022/02/01 11:55:59;;;;;;;10.17;8.53;;;;;;;;;;4993956;28;20692;-91
2022/02/01 11:58:31;;;;;;;12.57;9.83;;;;;;;;;;4993968;28;20206;-90
2022/02/01 12:00:59;;;;;;;10.90;9.90;;;;;;;;;;4993900;28;20665;-91
2022/02/01 12:03:37;;;;;;;46.53;38.17;;;;;;;;;;4993889;28;20240;-91
2022/02/01 12:06:08;;;;;;;23.90;21.40;;;;;;;;;;4993868;28;20716;-91
2022/02/01 12:08:37;;;;;;;26.57;23.67;;;;;;;;;;4993632;28;20251;-91
2022/02/01 12:11:07;;;;;;;16.27;14.57;;;;;;;;;;4993838;28;20212;-90
2022/02/01 12:13:35;;;;;;;19.53;16.03;;;;;;;;;;4994051;28;20286;-90
2022/02/01 12:16:05;;;;;;;11.63;10.17;;;;;;;;;;4993991;28;20258;-90
2022/02/01 12:18:45;;;;;;;9.47;8.47;;;;;;;;;;4993797;28;20235;-90
2022/02/01 12:21:27;;;;;;;10.10;7.47;;;;;;;;;;4993634;28;20275;-90
2022/02/01 12:23:56;;;;;;;12.93;9.70;;;;;;;;;;4993609;28;20188;-89
2022/02/01 12:26:25;;;;;;;10.07;9.03;;;;;;;;;;4993578;28;20192;-90
2022/02/01 12:28:53;;;;;;;10.13;9.17;;;;;;;;;;4993492;28;20247;-90
2022/02/01 12:31:21;;;;;;;10.47;9.37;;;;;;;;;;4993443;28;20211;-90
2022/02/01 12:33:53;;;;;;;10.70;8.63;;;;;;;;;;4993639;28;20242;-90
2022/02/01 12:36:26;;;;;;;10.53;8.50;;;;;;;;;;4993545;28;20708;-90
2022/02/01 12:38:59;;;;;;;10.17;9.07;;;;;;;;;;4993430;28;20188;-90
2022/02/01 12:41:32;;;;;;;9.73;8.03;;;;;;;;;;4993523;28;20196;-89
2022/02/01 12:46:47;;;;;;;8.17;7.37;;;;;;;;;;4964220;28;20236;-89
2022/02/01 12:49:16;;;;;;;9.67;8.17;;;;;;;;;;4993598;28;20208;-89
2022/02/01 12:51:45;;;;;;;7.60;6.30;;;;;;;;;;4993976;28;20606;-89
2022/02/01 12:54:23;;;;;;;24.67;14.77;;;;;;;;;;4993257;28;20200;-89
2022/02/01 12:56:51;;;;;;;10.93;9.83;;;;;;;;;;4993457;28;20184;-89
2022/02/01 12:59:21;;;;;;;12.97;11.67;;;;;;;;;;4993229;28;20291;-89
2022/02/01 13:01:49;;;;;;;19.60;16.00;;;;;;;;;;4993304;28;20188;-88
2022/02/01 13:04:28;;;;;;;15.00;10.80;;;;;;;;;;4993448;28;20259;-88
2022/02/01 13:06:55;;;;;;;38.73;25.50;;;;;;;;;;4993499;28;20189;-88
2022/02/01 13:15:07;;;;;;;11.87;10.73;;;;;;;;;;4993327;28;20188;-88
2022/02/01 13:17:45;;;;;;;13.87;11.70;;;;;;;;;;4993243;28;20188;-88
2022/02/01 13:20:17;;;;;;;8.07;5.73;;;;;;;;;;4995750;28;20192;-88
2022/02/01 13:22:56;;;;;;;41.93;23.43;;;;;;;;;;4996849;28;20185;-88
2022/02/01 13:25:33;;;;;;;6.03;5.10;;;;;;;;;;4996668;28;20219;-88
2022/02/01 13:28:03;;;;;;;4.63;3.83;;;;;;;;;;4997003;28;20642;-89
2022/02/01 13:30:30;;;;;;;120.00;55.67;;;;;;;;;;4996689;28;20756;-89
2022/02/01 13:33:05;;;;;;;54.00;33.40;;;;;;;;;;4996690;28;20219;-88
2022/02/01 13:35:35;;;;;;;21.60;12.47;;;;;;;;;;4996680;28;20188;-88
2022/02/01 13:38:11;;;;;;;14.43;12.57;;;;;;;;;;4996523;28;20265;-88
2022/02/01 13:40:39;;;;;;;10.60;7.87;;;;;;;;;;4996610;28;20184;-89
2022/02/01 13:43:17;;;;;;;16.13;11.93;;;;;;;;;;4996712;28;20576;-88
2022/02/01 13:45:45;;;;;;;12.37;11.07;;;;;;;;;;4996597;28;20203;-88
2022/02/01 13:48:19;;;;;;;22.73;14.77;;;;;;;;;;4996786;28;20626;-88
2022/02/01 13:50:48;;;;;;;19.93;15.37;;;;;;;;;;4996494;28;20196;-88
2022/02/01 13:53:17;;;;;;;22.90;13.70;;;;;;;;;;4996127;28;20231;-88
2022/02/01 13:55:44;;;;;;;25.40;17.43;;;;;;;;;;4996509;28;20227;-88
2022/02/01 13:58:13;;;;;;;50.73;32.63;;;;;;;;;;4996253;28;20219;-88
2022/02/01 14:00:42;;;;;;;71.80;37.67;;;;;;;;;;4996096;28;20208;-88
2022/02/01 14:03:30;;;;;;;144.37;80.03;;;;;;;;;;4996264;28;20200;-88
2022/02/01 14:06:11;;;;;;;142.53;86.70;;;;;;;;;;4995958;28;20195;-88
2022/02/01 14:08:47;;;;;;;132.60;77.23;;;;;;;;;;4996120;28;20292;-88
2022/02/01 14:14:18;;;;;;;21.00;17.07;;;;;;;;;;4995875;28;20211;-88
2022/02/01 14:22:49;;;;;;;175.67;90.73;;;;;;;;;;4995774;28;20175;-88
2022/02/01 14:28:10;;;;;;;26.30;17.73;;;;;;;;;;4995587;28;20410;-87
2022/02/01 14:33:33;;;;;;;77.07;54.20;;;;;;;;;;4995305;28;20699;-87
2022/02/01 14:36:00;;;;;;;79.60;51.60;;;;;;;;;;4995235;28;20200;-87
2022/02/01 14:44:30;;;;;;;16.37;10.50;;;;;;;;;;4935606;29;20182;-86
2022/02/01 14:46:57;;;;;;;12.90;8.60;;;;;;;;;;4935246;29;20207;-87
2022/02/01 14:49:25;;;;;;;27.50;17.40;;;;;;;;;;4935233;29;20206;-87
2022/02/01 14:51:53;;;;;;;37.20;22.20;;;;;;;;;;4935004;29;20610;-86
2022/02/01 14:54:29;;;;;;;23.83;17.33;;;;;;;;;;4934974;29;20731;-87
2022/02/01 15:03:42;;;;;;;15.17;10.27;;;;;;;;;;4935202;29;20196;-86
2022/02/01 15:05:26;;;;;;;11.93;8.37;;;;;;;;;;4934868;29;20258;-86
2022/02/01 15:11:23;;;;;;;18.80;13.37;;;;;;;;;;4934691;29;20195;-87
2022/02/01 15:13:30;;;;;;;15.63;12.90;;;;;;;;;;4991924;28;20267;-87
2022/02/01 15:15:57;;;;;;;19.33;13.37;;;;;;;;;;4994572;28;20588;-86
2022/02/01 15:18:24;;;;;;;17.37;13.10;;;;;;;;;;4994394;28;20570;-86
2022/02/01 15:20:52;;;;;;;18.57;13.63;;;;;;;;;;4994493;28;20687;-86
2022/02/01 15:23:20;;;;;;;18.77;13.60;;;;;;;;;;4993962;28;20235;-86
2022/02/01 15:25:49;;;;;;;19.23;13.20;;;;;;;;;;4994055;28;20200;-86
2022/02/01 15:28:16;;;;;;;14.57;13.07;;;;;;;;;;4994260;28;20207;-86
2022/02/01 15:30:44;;;;;;;14.27;11.47;;;;;;;;;;4994122;28;20800;-86
2022/02/01 15:33:13;;;;;;;18.37;13.77;;;;;;;;;;4993760;28;20219;-86
2022/02/01 15:35:41;;;;;;;19.50;15.00;;;;;;;;;;4993829;28;20200;-86
2022/02/01 15:38:10;;;;;;;19.57;15.43;;;;;;;;;;4993527;28;20246;-86
2022/02/01 15:57:23;;;;;;;11.00;9.20;;;;;;;;;;4991420;28;20631;-86
2022/02/01 15:59:54;;;;;;;13.20;10.33;;;;;;;;;;4993725;28;20188;-86
2022/02/01 16:02:22;;;;;;;15.73;12.57;;;;;;;;;;4993411;28;20192;-85
2022/02/01 16:04:54;;;;;;;15.63;10.23;;;;;;;;;;4993200;28;20203;-86
2022/02/01 16:07:23;;;;;;;15.93;12.60;;;;;;;;;;4993211;28;20188;-86
2022/02/01 16:10:03;;;;;;;14.57;11.77;;;;;;;;;;4993160;28;20199;-86
2022/02/01 16:12:34;;;;;;;8.30;7.43;;;;;;;;;;4993122;28;20192;-86
2022/02/01 16:15:03;;;;;;;10.93;8.73;;;;;;;;;;4993190;28;20188;-84
2022/02/01 16:17:30;;;;;;;39.37;28.73;;;;;;;;;;4992241;28;20207;-84
2022/02/01 16:19:58;;;;;;;16.10;10.83;;;;;;;;;;4990732;28;20204;-85
2022/02/01 16:22:25;;;;;;;21.93;16.80;;;;;;;;;;4992355;28;20216;-85
2022/02/01 16:24:52;;;;;;;22.13;17.63;;;;;;;;;;4992731;28;20212;-85
2022/02/01 16:27:19;;;;;;;20.97;17.70;;;;;;;;;;4992945;28;20200;-85
2022/02/01 16:29:47;;;;;;;13.30;11.27;;;;;;;;;;4992906;28;20196;-85
2022/02/01 16:32:15;;;;;;;20.93;17.90;;;;;;;;;;4992810;28;20196;-85
2022/02/01 16:34:43;;;;;;;31.07;26.67;;;;;;;;;;4992678;28;20232;-85
2022/02/01 16:37:12;;;;;;;13.57;10.20;;;;;;;;;;4992502;28;20670;-85